Time;durP1;ratioP1;P1;durP2;ratioP2;P2;SDS_P1;SDS_P2;PMS_P1;PMS_P2;Temp;Humidity;BMP_temperature;BMP_pressure;BME280_temperature;BME280_humidity;BME280_pressure;Samples;Min_cycle;Max_cycle;Signal;HPM_P1;HPM_P2
2022/07/26 10:56:00;;;;;;;3.40;3.13;;;33.10;43.60;;;28.08;46.34;95632.53;5045156;28;20332;-46
2022/07/26 10:58:42;;;;;;;3.33;3.03;;;32.90;42.10;;;28.59;43.84;95629.09;5026430;28;20094;-45
2022/07/26 11:01:08;;;;;;;3.33;2.83;;;33.30;40.90;;;28.52;43.38;95622.78;4966976;28;27970;-49
2022/07/26 11:03:42;;;;;;;3.47;3.17;;;33.80;39.50;;;28.37;43.75;95630.06;4948873;28;20049;-51
2022/07/26 11:06:29;;;;;;;4.70;2.95;;;33.90;38.50;;;28.63;41.33;95620.09;4987042;28;20018;-47
2022/07/26 11:08:58;;;;;;;4.30;3.58;;;34.50;37.20;;;29.16;41.38;95627.91;4970891;28;20057;-47
2022/07/26 11:11:32;;;;;;;4.63;3.05;;;35.30;36.00;;;29.81;38.34;95618.03;4988565;28;20089;-48
2022/07/26 11:14:10;;;;;;;8.38;3.40;;;35.90;35.00;;;30.32;37.68;95622.44;4990356;28;20401;-46
2022/07/26 11:16:43;;;;;;;4.82;3.28;;;36.70;34.10;;;30.13;37.70;95616.09;5003568;28;20042;-48
2022/07/26 11:19:21;;;;;;;5.05;3.60;;;37.20;32.70;;;30.70;37.59;95611.84;4992994;28;20093;-46
2022/07/26 11:21:59;;;;;;;7.63;3.42;;;37.80;31.90;;;30.87;35.90;95606.34;4989214;28;20029;-46
2022/07/26 11:24:31;;;;;;;4.45;4.13;;;38.10;31.00;;;31.48;35.71;95608.94;4995883;28;20496;-48
2022/07/26 11:27:03;;;;;;;3.33;3.03;;;38.80;30.40;;;31.77;35.24;95601.31;4949756;28;23557;-49
2022/07/26 11:29:33;;;;;;;3.55;3.20;;;39.30;29.80;;;31.50;35.62;95601.06;4992815;28;20109;-49
2022/07/26 11:32:00;;;;;;;3.70;3.30;;;39.10;29.50;;;31.37;36.02;95602.72;4999537;28;20132;-46
2022/07/26 11:34:35;;;;;;;3.22;2.92;;;38.80;29.50;;;30.77;36.05;95598.06;4991793;28;20029;-46
2022/07/26 11:37:05;;;;;;;6.25;3.38;;;38.40;29.20;;;30.51;36.91;95596.53;4944968;28;20017;-46
2022/07/26 11:39:34;;;;;;;5.70;2.72;;;37.90;29.50;;;30.02;38.25;95603.53;4989328;28;20053;-48
2022/07/26 11:42:09;;;;;;;3.05;2.75;;;37.40;29.80;;;29.61;37.97;95596.38;4995655;28;20021;-46
2022/07/26 11:44:36;;;;;;;4.18;3.20;;;37.00;29.80;;;29.21;38.92;95602.88;5001866;28;20480;-53
2022/07/26 11:47:21;;;;;;;3.55;2.83;;;36.60;29.90;;;28.98;38.45;95603.09;4995621;28;20448;-47
2022/07/26 11:49:48;;;;;;;3.72;3.15;;;36.10;30.00;;;28.77;38.22;95599.06;4992850;28;20116;-47
2022/07/26 11:52:17;;;;;;;3.10;2.35;;;35.80;30.00;;;28.53;38.20;95599.69;4999979;28;20600;-47
2022/07/26 11:54:54;;;;;;;4.40;3.53;;;35.30;30.00;;;28.28;39.63;95593.97;5000619;28;20088;-46
2022/07/26 11:57:21;;;;;;;7.25;4.25;;;35.30;30.30;;;28.27;39.97;95582.25;5003792;28;20384;-45
2022/07/26 11:59:49;;;;;;;4.43;3.13;;;35.50;30.30;;;28.43;39.93;95589.44;5007004;28;20453;-44
2022/07/26 12:02:20;;;;;;;2.78;2.50;;;35.60;30.30;;;28.41;39.60;95587.06;5004763;28;20490;-46
2022/07/26 12:04:46;;;;;;;3.33;2.42;;;35.50;30.30;;;28.35;39.32;95585.81;4994989;28;20631;-44
2022/07/26 12:07:20;;;;;;;4.20;3.03;;;35.30;30.30;;;28.51;37.94;95588.31;4970372;28;20107;-47
2022/07/26 12:09:51;;;;;;;3.67;2.80;;;35.60;30.40;;;28.76;36.96;95594.75;4981410;28;20108;-46
2022/07/26 12:12:26;;;;;;;3.30;3.00;;;36.00;29.60;;;29.02;37.54;95598.47;4981432;28;21443;-50
2022/07/26 12:15:01;;;;;;;3.85;2.80;;;36.50;29.40;;;29.14;35.38;95581.66;4978661;28;20037;-50
2022/07/26 12:17:29;;;;;;;8.45;3.88;;;36.90;28.90;;;29.54;36.00;95588.09;4973522;28;20022;-50
2022/07/26 12:20:08;;;;;;;5.28;3.28;;;37.40;28.50;;;29.90;33.65;95585.50;4957277;28;20117;-46
2022/07/26 12:22:37;;;;;;;4.93;2.80;;;37.80;27.90;;;30.28;34.30;95583.19;4982225;28;20098;-48
2022/07/26 12:25:04;;;;;;;6.72;3.22;;;37.90;27.80;;;30.13;34.01;95582.38;4959815;28;20029;-52
2022/07/26 12:27:43;;;;;;;3.65;3.08;;;37.60;27.60;;;30.42;33.79;95572.19;4966873;28;20021;-51
2022/07/26 12:30:16;;;;;;;3.08;2.70;;;37.50;27.70;;;30.28;34.25;95566.72;4992088;28;20075;-47
2022/07/26 12:32:47;;;;;;;3.72;3.42;;;37.50;27.60;;;30.98;32.87;95576.06;4978930;28;20026;-45
2022/07/26 12:35:34;;;;;;;3.88;2.60;;;37.90;27.50;;;30.84;32.36;95568.66;4979452;28;20064;-51
2022/07/26 12:38:03;;;;;;;7.18;2.92;;;38.10;27.20;;;30.23;33.55;95575.34;4979210;28;20026;-47
2022/07/26 12:40:40;;;;;;;5.70;3.10;;;38.20;26.80;;;30.70;32.55;95573.34;4991999;28;20033;-50
2022/07/26 12:43:20;;;;;;;3.67;3.35;;;38.30;26.60;;;31.48;32.37;95566.88;4992814;28;20056;-46
2022/07/26 12:45:49;;;;;;;4.85;3.65;;;38.60;26.60;;;31.78;32.92;95558.84;4975724;28;20108;-47
2022/07/26 12:48:24;;;;;;;4.28;3.58;;;39.10;26.50;;;31.92;32.38;95563.50;4991808;28;20033;-46
2022/07/26 12:50:50;;;;;;;5.97;3.72;;;39.50;26.30;;;31.99;32.11;95557.16;4956197;28;20051;-48
2022/07/26 12:53:19;;;;;;;5.30;4.28;;;39.70;26.20;;;32.32;32.05;95554.97;4971876;28;20686;-46
2022/07/26 12:55:45;;;;;;;3.72;2.92;;;39.90;26.00;;;32.41;31.49;95549.75;4954493;28;20049;-57
2022/07/26 12:58:10;;;;;;;4.68;3.63;;;40.10;26.10;;;32.20;32.65;95551.50;4991626;28;20472;-46
2022/07/26 13:00:36;;;;;;;5.88;4.07;;;40.20;26.00;;;32.46;31.62;95549.34;4990303;28;20018;-46
2022/07/26 13:03:04;;;;;;;5.68;3.47;;;40.40;25.70;;;32.31;31.76;95545.09;4990729;28;20076;-48
2022/07/26 13:05:30;;;;;;;3.90;3.50;;;40.50;25.40;;;32.11;30.95;95542.91;4961316;28;20025;-50
2022/07/26 13:08:02;;;;;;;4.95;3.88;;;40.60;25.10;;;31.91;31.92;95533.63;4980164;28;20461;-45
2022/07/26 13:10:28;;;;;;;3.92;3.63;;;40.90;24.80;;;32.15;31.71;95529.88;4968986;28;20385;-45
2022/07/26 13:12:54;;;;;;;5.68;3.10;;;41.20;24.80;;;32.46;31.36;95527.28;4986238;28;20034;-48
2022/07/26 13:15:20;;;;;;;4.45;4.05;;;41.20;24.70;;;32.42;31.37;95527.28;4970546;28;20037;-46
2022/07/26 13:17:46;;;;;;;4.38;3.08;;;41.30;24.60;;;32.46;31.30;95517.03;4970615;28;20037;-57
2022/07/26 13:20:11;;;;;;;6.85;3.15;;;41.40;24.50;;;31.88;32.41;95520.63;4969280;28;20038;-46
2022/07/26 13:22:41;;;;;;;4.68;3.75;;;41.00;24.30;;;31.64;32.60;95514.88;4987625;28;20038;-46
2022/07/26 13:25:07;;;;;;;5.65;3.75;;;40.70;24.40;;;32.42;32.42;95518.25;4990362;28;20049;-45
2022/07/26 13:27:33;;;;;;;4.53;3.42;;;40.90;24.70;;;32.81;30.74;95512.38;4974854;28;20045;-53
2022/07/26 13:30:03;;;;;;;3.63;3.22;;;41.10;25.20;;;32.88;30.45;95506.78;4991028;28;20542;-47
2022/07/26 13:32:35;;;;;;;3.65;3.33;;;41.30;24.30;;;32.41;29.88;95503.69;4991739;28;20412;-49
2022/07/26 13:35:07;;;;;;;4.15;3.75;;;41.40;23.80;;;32.26;29.30;95505.00;4972493;28;20034;-45
2022/07/26 13:37:32;;;;;;;4.95;4.15;;;41.40;23.50;;;32.06;30.98;95512.25;4985937;28;20104;-45
2022/07/26 13:40:01;;;;;;;4.60;3.33;;;41.30;23.40;;;32.34;29.20;95505.72;4992135;28;20108;-46
2022/07/26 13:42:32;;;;;;;4.75;4.35;;;41.30;23.30;;;32.35;30.03;95499.03;4990958;28;20041;-46
2022/07/26 13:45:01;;;;;;;5.50;4.35;;;41.50;23.20;;;31.87;31.15;95505.28;4983589;28;20052;-46
2022/07/26 13:47:30;;;;;;;3.90;3.60;;;41.70;23.30;;;32.37;30.96;95494.66;4966305;28;20037;-47
2022/07/26 13:49:55;;;;;;;5.90;3.72;;;41.80;23.30;;;32.87;29.60;95509.94;4992209;28;20052;-46
2022/07/26 13:52:24;;;;;;;3.80;3.50;;;42.00;23.20;;;32.94;29.51;95502.38;4991359;28;20049;-46
2022/07/26 13:54:53;;;;;;;4.35;3.90;;;42.30;23.00;;;33.05;29.84;95498.72;4987049;28;20042;-47
2022/07/26 13:57:19;;;;;;;4.07;3.78;;;42.50;23.00;;;32.17;31.60;95507.44;4986522;28;20026;-46
2022/07/26 13:59:45;;;;;;;4.50;4.00;;;42.60;22.80;;;32.68;28.85;95497.53;4979148;28;20042;-46
2022/07/26 14:02:20;;;;;;;5.13;3.72;;;42.70;22.60;;;32.96;29.26;95496.44;4986713;28;20034;-48
2022/07/26 14:04:49;;;;;;;4.22;3.90;;;42.90;22.40;;;33.29;30.57;95494.88;4991652;28;20032;-47
2022/07/26 14:07:18;;;;;;;5.45;4.18;;;43.10;22.60;;;33.19;28.84;95506.84;4990568;28;20095;-47
2022/07/26 14:09:47;;;;;;;3.85;3.53;;;43.30;22.40;;;33.60;27.50;95483.84;4991428;28;20030;-46
2022/07/26 14:12:16;;;;;;;6.65;4.50;;;43.50;22.00;;;33.98;27.76;95484.41;4990951;28;20028;-46
2022/07/26 14:14:50;;;;;;;6.47;4.03;;;43.80;21.90;;;33.16;28.22;95488.34;4991342;28;20029;-46
2022/07/26 14:17:16;;;;;;;3.90;3.60;;;44.00;21.60;;;33.20;26.64;95489.06;4939449;28;20434;-48
2022/07/26 14:19:51;;;;;;;4.57;2.90;;;44.00;21.10;;;33.10;26.51;95490.00;4997817;28;20029;-45
2022/07/26 14:22:20;;;;;;;4.60;3.38;;;43.30;20.80;;;33.52;26.44;95485.91;4991258;28;20108;-52
2022/07/26 14:24:51;;;;;;;7.47;3.78;;;43.20;21.00;;;33.60;26.50;95479.09;4958834;28;20038;-45
2022/07/26 14:27:23;;;;;;;4.78;4.22;;;43.50;21.10;;;33.40;27.19;95489.19;4972146;28;20109;-49
2022/07/26 14:29:49;;;;;;;4.13;3.75;;;43.90;21.00;;;33.15;27.29;95493.06;4968659;28;20045;-47
2022/07/26 14:32:21;;;;;;;5.13;4.40;;;44.20;20.80;;;33.09;28.73;95485.66;4970530;28;20040;-48
2022/07/26 14:34:48;;;;;;;3.67;3.33;;;44.60;20.70;;;32.77;28.71;95491.53;4971836;28;20042;-47
2022/07/26 14:37:15;;;;;;;4.50;4.15;;;44.20;20.70;;;33.14;28.59;95487.97;4972100;28;20034;-47
2022/07/26 14:39:47;;;;;;;5.55;3.72;;;43.80;20.90;;;33.90;27.99;95488.50;4971461;28;20076;-46
2022/07/26 14:42:15;;;;;;;5.15;4.40;;;44.10;21.00;;;34.06;27.16;95485.88;4971455;28;20033;-46
2022/07/26 14:44:41;;;;;;;3.63;3.25;;;44.50;20.90;;;33.98;26.58;95486.41;4971869;28;20125;-46
2022/07/26 14:47:07;;;;;;;5.30;4.90;;;44.60;20.50;;;33.71;26.92;95484.44;4970441;28;20105;-49
2022/07/26 14:49:33;;;;;;;5.53;4.68;;;44.70;20.40;;;33.96;26.87;95483.28;4970595;28;20113;-51
2022/07/26 14:52:00;;;;;;;5.95;4.40;;;45.20;20.20;;;34.08;25.25;95475.19;4970138;28;20556;-46
2022/07/26 14:54:26;;;;;;;6.22;4.65;;;45.50;19.60;;;33.11;26.27;95475.78;4972928;28;20416;-47
2022/07/26 14:56:53;;;;;;;5.18;4.28;;;45.00;19.30;;;33.38;25.33;95475.81;4961173;28;20487;-48
2022/07/26 14:59:26;;;;;;;4.80;4.32;;;45.30;19.10;;;34.15;24.62;95477.06;4986046;28;20038;-47
2022/07/26 15:01:52;;;;;;;4.80;4.55;;;45.90;18.90;;;34.27;24.48;95473.69;4937767;28;20757;-53
2022/07/26 15:04:27;;;;;;;7.10;4.50;;;46.40;18.50;;;34.46;24.30;95468.63;4989609;28;20449;-48
2022/07/26 15:06:53;;;;;;;5.78;4.30;;;46.90;18.20;;;34.62;24.21;95463.22;4990856;28;20075;-48
2022/07/26 15:09:18;;;;;;;4.90;4.50;;;46.70;18.10;;;34.72;23.80;95461.44;4981765;28;20027;-47
2022/07/26 15:11:51;;;;;;;4.45;3.97;;;47.20;17.90;;;35.18;22.95;95460.53;4966311;28;20030;-47
2022/07/26 15:14:26;;;;;;;3.35;3.05;;;47.20;17.70;;;34.64;24.14;95454.50;4982016;28;20026;-46
2022/07/26 15:16:54;;;;;;;3.60;3.22;;;45.90;18.10;;;33.95;24.14;95457.63;4971177;28;20034;-48
2022/07/26 15:19:23;;;;;;;4.97;3.97;;;44.70;18.30;;;34.13;24.06;95449.09;4970183;28;20086;-46
2022/07/26 15:21:54;;;;;;;7.50;4.50;;;45.30;18.30;;;34.58;23.98;95453.44;4970914;28;20076;-57
2022/07/26 15:24:21;;;;;;;3.63;3.42;;;46.20;18.00;;;34.77;23.66;95449.91;4961154;28;20568;-46
2022/07/26 15:26:46;;;;;;;5.68;4.32;;;46.70;17.70;;;34.63;23.39;95439.09;4953758;28;20121;-48
2022/07/26 15:29:24;;;;;;;5.15;4.72;;;47.50;17.50;;;35.06;23.26;95441.03;4982346;28;20105;-47
2022/07/26 15:31:50;;;;;;;4.75;4.45;;;48.70;17.00;;;35.03;23.16;95442.66;4990323;28;20079;-49
2022/07/26 15:34:19;;;;;;;4.60;3.92;;;49.20;16.50;;;34.67;23.08;95450.91;4936534;28;26702;-46
2022/07/26 15:36:45;;;;;;;3.05;2.85;;;47.70;16.80;;;34.22;23.66;95440.22;4879834;28;66074;-51
2022/07/26 15:39:11;;;;;;;4.95;4.50;;;46.20;17.20;;;34.63;23.36;95448.19;4867437;28;20038;-53
2022/07/26 15:41:37;;;;;;;5.65;5.13;;;47.10;17.00;;;34.92;23.41;95442.09;4987850;28;20481;-51
2022/07/26 15:44:04;;;;;;;6.63;6.20;;;48.70;16.50;;;35.35;22.69;95442.00;4982966;28;20424;-50
2022/07/26 15:46:29;;;;;;;9.32;8.60;;;50.30;15.90;;;35.78;22.39;95446.56;4975767;28;20488;-54
2022/07/26 15:48:58;;;;;;;7.97;7.47;;;51.60;15.40;;;36.44;21.60;95438.19;4991437;28;20039;-54
2022/07/26 15:51:24;;;;;;;9.88;9.25;;;52.40;15.00;;;36.89;21.08;95446.50;4934199;28;20718;-49
2022/07/26 15:53:56;;;;;;;10.40;9.80;;;53.40;14.60;;;37.34;20.61;95442.81;4955307;28;20476;-45
2022/07/26 15:56:21;;;;;;;11.35;10.57;;;54.30;14.20;;;37.93;19.84;95438.63;4991492;28;20026;-48
2022/07/26 15:58:53;;;;;;;9.75;9.15;;;54.80;13.90;;;37.50;20.57;95433.63;4989657;28;20072;-49
2022/07/26 16:01:22;;;;;;;5.53;5.00;;;54.40;13.90;;;36.65;21.69;95439.66;4988836;28;20036;-47
2022/07/26 16:03:48;;;;;;;3.67;3.38;;;52.50;14.30;;;35.84;22.03;95436.50;4977889;28;20481;-46
2022/07/26 16:06:14;;;;;;;3.42;3.00;;;50.20;15.00;;;35.12;22.33;95434.56;4988756;28;20030;-46
2022/07/26 16:08:40;;;;;;;2.75;2.55;;;48.00;15.70;;;34.18;23.45;95434.00;4970743;28;20492;-50
2022/07/26 16:11:06;;;;;;;4.07;2.70;;;46.20;16.40;;;33.75;23.82;95434.66;4980543;28;20038;-51
2022/07/26 16:13:31;;;;;;;2.38;2.15;;;44.80;17.00;;;33.21;24.27;95431.91;4983327;28;20030;-47
2022/07/26 16:16:04;;;;;;;3.17;2.88;;;43.60;17.50;;;32.90;25.03;95432.66;4991045;28;20033;-50
2022/07/26 16:18:30;;;;;;;3.95;3.65;;;43.80;17.60;;;33.37;24.49;95421.78;4984997;28;20028;-51
2022/07/26 16:20:56;;;;;;;4.18;3.75;;;45.10;17.20;;;33.66;24.01;95417.84;4984106;28;20245;-52
2022/07/26 16:23:22;;;;;;;5.45;4.90;;;45.90;16.90;;;33.86;23.87;95425.03;4975955;28;20109;-49
2022/07/26 16:25:48;;;;;;;4.97;4.57;;;47.40;16.40;;;33.64;24.58;95423.81;4967904;28;20065;-47
2022/07/26 16:28:14;;;;;;;6.65;6.05;;;48.60;15.90;;;34.61;23.61;95428.47;4968903;28;20030;-46
2022/07/26 16:31:01;;;;;;;5.93;5.53;;;49.60;15.50;;;35.13;22.71;95425.06;4993319;28;20461;-48
2022/07/26 16:33:27;;;;;;;7.15;6.65;;;50.70;15.30;;;35.63;22.41;95428.72;4986580;28;20233;-47
2022/07/26 16:35:55;;;;;;;5.70;5.15;;;51.40;14.80;;;35.57;22.16;95427.66;4980793;28;20661;-46
2022/07/26 16:38:21;;;;;;;5.20;4.78;;;51.50;14.50;;;35.07;22.86;95420.44;4983815;28;20241;-48
2022/07/26 16:40:47;;;;;;;5.97;4.90;;;50.60;14.70;;;34.64;22.81;95419.34;4972113;28;20148;-48
2022/07/26 16:43:17;;;;;;;5.75;5.15;;;50.60;14.60;;;34.76;23.02;95413.16;4978601;28;20033;-52
2022/07/26 16:45:43;;;;;;;;;;;50.50;14.60;;;34.51;23.13;95416.41;4987549;28;20026;-46
2022/07/26 16:48:11;;;;;;;5.72;5.20;;;50.70;14.70;;;34.67;23.32;95415.72;4980539;28;19958;-46
2022/07/26 16:50:40;;;;;;;5.00;4.70;;;50.50;14.70;;;34.61;23.26;95414.66;4981141;28;20108;-50
2022/07/26 16:53:08;;;;;;;5.07;4.78;;;50.70;14.60;;;34.80;22.94;95415.09;4977142;28;20072;-47
2022/07/26 16:55:34;;;;;;;5.63;5.18;;;50.80;14.60;;;35.12;22.71;95414.41;4981734;28;20069;-49
2022/07/26 16:58:05;;;;;;;4.82;4.45;;;51.30;14.50;;;34.90;22.87;95412.06;4995420;28;20433;-48
2022/07/26 17:00:31;;;;;;;3.80;3.20;;;51.20;14.20;;;34.63;23.56;95411.44;4971079;28;20034;-52
2022/07/26 17:03:00;;;;;;;4.43;3.13;;;49.60;14.70;;;33.94;24.09;95411.88;4993249;28;20102;-48
2022/07/26 17:05:29;;;;;;;3.10;2.90;;;47.70;15.40;;;33.61;24.63;95411.63;4980612;28;20551;-48
2022/07/26 17:07:54;;;;;;;3.30;3.03;;;46.80;15.80;;;32.84;25.06;95417.75;4978872;28;20047;-47
2022/07/26 17:10:23;;;;;;;2.80;2.45;;;45.50;16.30;;;32.38;25.58;95418.28;4977558;28;20417;-47
2022/07/26 17:12:49;;;;;;;2.88;1.95;;;45.20;16.40;;;32.10;26.30;95409.13;4976068;28;20397;-47
2022/07/26 17:15:15;;;;;;;2.45;2.22;;;44.90;16.40;;;31.78;26.60;95414.91;4972313;28;20084;-51
2022/07/26 17:17:40;;;;;;;6.43;2.47;;;43.70;17.00;;;31.53;26.84;95406.84;4967069;28;20033;-47
2022/07/26 17:20:08;;;;;;;2.28;2.08;;;42.20;17.80;;;30.92;27.38;95409.16;4989655;28;20021;-47
2022/07/26 17:22:35;;;;;;;4.18;2.20;;;40.60;18.60;;;30.23;27.75;95407.78;4987626;28;20029;-51
2022/07/26 17:25:07;;;;;;;2.72;1.73;;;39.20;19.30;;;30.01;28.03;95401.53;4986208;28;20599;-52
2022/07/26 17:27:34;;;;;;;3.50;2.20;;;38.00;20.10;;;29.66;29.29;95400.38;4956237;28;20113;-48
2022/07/26 17:30:05;;;;;;;4.43;1.70;;;37.00;20.80;;;29.35;28.85;95393.69;4970816;28;20034;-47
2022/07/26 17:32:31;;;;;;;1.80;1.60;;;36.10;21.40;;;29.10;29.88;95402.66;4968616;28;20025;-50
2022/07/26 17:34:59;;;;;;;4.07;1.85;;;35.30;21.90;;;28.69;29.38;95393.88;4990523;28;20079;-48
2022/07/26 17:37:27;;;;;;;4.13;1.85;;;34.70;22.40;;;28.23;30.41;95406.16;4991075;28;20377;-50
2022/07/26 17:39:53;;;;;;;2.15;1.73;;;34.10;22.80;;;28.08;30.63;95399.03;4984070;28;20635;-50
2022/07/26 17:42:22;;;;;;;1.63;1.52;;;33.60;23.30;;;27.74;31.31;95407.38;4971992;28;20080;-51
2022/07/26 17:44:50;;;;;;;3.58;1.60;;;33.10;23.70;;;27.56;31.83;95398.25;4959196;28;20061;-49
2022/07/26 17:47:19;;;;;;;5.88;1.60;;;32.60;24.20;;;27.40;32.08;95398.50;4984927;28;20021;-46
2022/07/26 17:49:50;;;;;;;2.60;1.90;;;32.20;24.70;;;27.20;32.87;95396.00;4991843;28;20040;-53
2022/07/26 17:52:19;;;;;;;1.92;1.42;;;31.80;25.00;;;26.98;32.67;95392.25;4973961;28;20022;-50
2022/07/26 17:54:45;;;;;;;5.13;1.58;;;31.60;25.40;;;26.77;33.22;95403.72;4986908;28;20052;-48
2022/07/26 17:57:11;;;;;;;4.45;1.58;;;31.30;25.70;;;26.33;33.67;95397.28;4990402;28;20481;-46
2022/07/26 17:59:49;;;;;;;2.17;1.45;;;31.00;25.90;;;26.18;34.12;95396.31;4982209;28;20033;-49
2022/07/26 18:02:16;;;;;;;2.97;1.20;;;30.70;26.30;;;26.10;34.25;95395.41;4971884;28;20485;-47
2022/07/26 18:04:45;;;;;;;2.20;1.40;;;30.50;26.40;;;25.95;34.83;95396.38;4976680;28;20027;-49
2022/07/26 18:07:11;;;;;;;4.20;1.63;;;30.20;26.80;;;25.75;35.07;95395.66;4956365;28;43353;-50
2022/07/26 18:09:37;;;;;;;2.58;1.45;;;30.00;27.00;;;25.64;35.55;95395.50;4966513;28;20022;-49
2022/07/26 18:12:03;;;;;;;4.25;1.30;;;29.80;27.30;;;25.51;35.39;95400.38;4969376;28;20521;-47
2022/07/26 18:14:32;;;;;;;4.25;1.52;;;29.70;27.60;;;25.35;35.97;95392.31;4979550;28;20372;-50
2022/07/26 18:16:58;;;;;;;2.63;1.45;;;29.50;27.90;;;25.26;35.97;95396.41;4985807;28;20014;-47
2022/07/26 18:19:31;;;;;;;3.22;1.63;;;29.40;28.00;;;25.17;36.45;95393.16;4980234;28;20033;-45
2022/07/26 18:22:03;;;;;;;5.68;1.70;;;29.20;28.40;;;25.09;36.75;95398.44;4988554;28;20049;-50
2022/07/26 18:24:32;;;;;;;2.65;1.45;;;29.00;28.50;;;24.96;36.95;95402.50;4990281;28;20030;-50
2022/07/26 18:27:04;;;;;;;1.88;1.35;;;28.90;28.60;;;24.80;37.23;95401.81;4990529;28;20105;-48
2022/07/26 18:29:31;;;;;;;2.00;1.50;;;28.70;28.80;;;24.64;37.47;95404.63;4975581;28;20022;-52
2022/07/26 18:32:06;;;;;;;1.65;1.23;;;28.60;29.00;;;24.51;37.28;95401.25;4988178;28;20409;-47
2022/07/26 18:34:35;;;;;;;2.22;1.42;;;28.40;29.20;;;24.43;38.11;95411.19;4989634;28;20029;-52
2022/07/26 18:37:04;;;;;;;1.88;1.23;;;28.30;29.40;;;24.36;38.53;95405.56;4988995;28;20022;-50
2022/07/26 18:39:32;;;;;;;2.10;1.20;;;28.20;29.70;;;24.33;38.91;95410.94;4989920;28;20584;-50
2022/07/26 18:41:58;;;;;;;3.75;1.30;;;28.00;29.90;;;24.20;39.22;95407.56;4987965;28;20026;-46
2022/07/26 18:44:23;;;;;;;7.00;1.52;;;27.90;30.00;;;24.13;39.38;95410.94;4987819;28;20032;-48
2022/07/26 18:46:51;;;;;;;2.55;1.50;;;27.80;30.40;;;24.04;39.63;95402.19;4989134;28;20488;-48
2022/07/26 18:49:18;;;;;;;1.50;1.33;;;27.70;30.60;;;23.96;39.99;95406.66;4988442;28;20088;-52
2022/07/26 18:51:47;;;;;;;2.55;1.45;;;27.60;30.90;;;23.90;39.86;95416.22;4989568;28;20029;-50
2022/07/26 18:54:12;;;;;;;3.25;1.20;;;27.60;31.20;;;23.83;40.11;95412.56;4989129;28;20048;-45
2022/07/26 18:56:38;;;;;;;6.05;1.27;;;27.40;31.30;;;23.76;40.27;95422.13;4975173;28;20105;-45
2022/07/26 18:59:06;;;;;;;2.35;1.38;;;27.40;31.50;;;23.68;39.95;95414.91;4969737;28;20415;-49
2022/07/26 19:01:33;;;;;;;4.88;1.40;;;27.20;31.70;;;23.59;39.87;95417.03;4978655;28;20029;-50
2022/07/26 19:04:02;;;;;;;3.20;1.50;;;27.20;31.70;;;23.47;39.72;95423.38;4988286;28;20026;-49
2022/07/26 19:06:28;;;;;;;3.97;1.30;;;27.10;31.80;;;23.50;39.96;95419.13;4988034;28;20049;-52
2022/07/26 19:09:09;;;;;;;2.25;1.52;;;27.10;31.90;;;23.48;40.01;95427.66;4970638;28;20567;-47
2022/07/26 19:11:35;;;;;;;4.25;1.60;;;27.00;32.00;;;23.47;40.06;95434.22;4997033;28;20029;-48
2022/07/26 19:14:01;;;;;;;2.65;2.03;;;27.00;32.00;;;23.47;40.53;95430.69;4988701;28;20107;-50
2022/07/26 19:16:27;;;;;;;3.40;1.33;;;26.90;32.10;;;23.46;40.36;95445.44;4990691;28;20040;-53
2022/07/26 19:18:53;;;;;;;2.95;1.38;;;26.90;32.20;;;23.43;40.39;95446.13;4993171;28;20041;-50
2022/07/26 19:21:21;;;;;;;3.38;1.33;;;26.90;32.40;;;23.41;40.62;95445.69;4993257;28;20084;-49
2022/07/26 19:23:47;;;;;;;3.33;1.15;;;26.90;32.50;;;23.36;40.98;95451.41;4972025;28;20030;-46
2022/07/26 19:26:13;;;;;;;3.05;1.17;;;26.90;32.70;;;23.31;40.97;95450.50;4982193;28;20038;-48
2022/07/26 19:28:39;;;;;;;2.35;1.50;;;26.80;32.80;;;23.28;41.38;95451.22;4973338;28;20073;-51
2022/07/26 19:31:07;;;;;;;3.10;1.40;;;26.80;33.00;;;23.26;41.89;95458.16;4981772;28;20034;-47
2022/07/26 19:33:33;;;;;;;3.92;1.50;;;26.70;33.20;;;23.20;42.12;95460.31;4984439;28;20077;-47
2022/07/26 19:36:13;;;;;;;4.97;1.65;;;26.70;33.30;;;23.18;42.35;95470.75;4981963;28;20437;-48
2022/07/26 19:38:42;;;;;;;3.05;2.30;;;26.70;33.50;;;23.16;42.38;95470.31;4973567;28;20349;-45
2022/07/26 19:41:08;;;;;;;2.67;1.40;;;26.70;33.70;;;23.11;42.00;95478.72;4973418;28;20389;-46
2022/07/26 19:43:34;;;;;;;2.45;1.48;;;26.70;33.70;;;23.08;41.79;95472.03;4976608;28;20029;-49
2022/07/26 19:46:00;;;;;;;2.85;1.60;;;26.60;33.70;;;23.05;42.12;95474.66;4837720;28;20056;-45
2022/07/26 19:48:35;;;;;;;2.30;1.50;;;26.60;33.80;;;23.05;42.36;95478.16;4972737;28;20037;-46
2022/07/26 19:51:04;;;;;;;2.25;1.38;;;26.60;33.90;;;23.05;41.80;95480.88;4991344;28;20121;-46
2022/07/26 19:53:29;;;;;;;3.78;1.20;;;26.60;33.90;;;23.04;42.30;95481.25;4991803;28;20104;-49
2022/07/26 19:55:57;;;;;;;3.97;1.70;;;26.50;34.00;;;23.01;42.31;95484.66;4992132;28;20040;-49
2022/07/26 19:58:23;;;;;;;4.05;1.73;;;26.50;34.10;;;22.99;42.57;95481.47;5005968;28;20049;-46
2022/07/26 20:00:49;;;;;;;4.78;1.95;;;26.50;34.20;;;22.92;45.29;95489.41;4976225;28;20065;-46
2022/07/26 20:03:15;;;;;;;3.30;1.75;;;26.40;34.70;;;22.80;45.95;95487.53;4983215;28;20526;-47
2022/07/26 20:05:41;;;;;;;3.08;2.00;;;26.40;35.10;;;22.62;46.15;95487.78;4987194;28;20030;-49
2022/07/26 20:08:06;;;;;;;3.80;2.08;;;26.30;35.40;;;22.43;46.04;95484.91;4985322;28;20033;-45
2022/07/26 20:10:32;;;;;;;7.28;2.08;;;26.20;35.50;;;22.32;46.65;95487.31;4988161;28;20026;-50
2022/07/26 20:13:00;;;;;;;5.93;3.55;;;26.10;35.80;;;22.27;45.96;95482.09;4980117;28;20101;-50
2022/07/26 20:15:29;;;;;;;4.38;2.30;;;26.00;36.10;;;22.14;46.50;95486.72;4985299;28;20030;-48
2022/07/26 20:17:55;;;;;;;15.02;10.10;;;25.90;36.20;;;21.97;46.24;95483.47;4988234;28;20392;-47
2022/07/26 20:20:21;;;;;;;3.72;2.00;;;25.70;36.30;;;21.86;46.62;95486.63;4985496;28;20037;-47
2022/07/26 20:22:48;;;;;;;9.88;5.82;;;25.60;36.40;;;21.74;45.45;95475.00;4995290;28;20030;-47
2022/07/26 20:25:14;;;;;;;5.25;1.90;;;25.50;36.40;;;21.66;45.79;95480.19;4971445;28;20025;-45
2022/07/26 20:27:41;;;;;;;5.45;2.67;;;25.40;36.50;;;21.56;45.47;95477.94;4983397;28;20022;-46
2022/07/26 20:30:10;;;;;;;4.82;3.08;;;25.30;36.50;;;21.48;45.83;95476.09;4972437;28;20050;-46
2022/07/26 20:32:36;;;;;;;5.47;2.60;;;25.20;36.70;;;21.44;45.88;95481.41;4978061;28;20026;-47
2022/07/26 20:35:09;;;;;;;10.55;5.65;;;25.10;36.60;;;21.39;45.94;95486.25;4986535;28;20513;-47
2022/07/26 20:37:35;;;;;;;7.28;3.90;;;25.00;36.90;;;21.29;46.50;95483.94;4987519;28;20022;-45
2022/07/26 20:40:05;;;;;;;6.10;3.10;;;24.90;37.00;;;21.15;47.51;95486.94;4984809;28;20037;-48
2022/07/26 20:42:33;;;;;;;2.78;1.70;;;24.80;37.20;;;21.03;47.88;95487.72;4984105;28;20018;-50
2022/07/26 20:45:00;;;;;;;4.00;1.50;;;24.70;37.30;;;20.97;47.02;95484.41;4978253;28;20392;-50
2022/07/26 20:47:28;;;;;;;2.55;1.33;;;24.60;37.40;;;20.86;47.41;95485.94;4980111;28;20468;-47
2022/07/26 20:50:05;;;;;;;1.85;1.20;;;24.60;37.70;;;20.79;46.76;95474.88;4973815;28;20065;-47
2022/07/26 20:52:36;;;;;;;2.63;1.13;;;24.50;37.70;;;20.74;46.44;95475.06;4995053;28;20021;-47
2022/07/26 20:55:06;;;;;;;2.25;1.02;;;24.40;37.60;;;20.70;46.49;95477.63;4977818;28;20420;-47
2022/07/26 20:57:32;;;;;;;5.47;1.20;;;24.30;37.60;;;20.66;46.64;95482.13;4987159;28;20018;-49
2022/07/26 21:00:01;;;;;;;1.95;1.35;;;24.30;37.60;;;20.63;46.87;95482.81;4988105;28;20037;-48
2022/07/26 21:02:27;;;;;;;3.08;1.40;;;24.20;37.70;;;20.58;46.74;95477.59;4978398;28;20037;-51
2022/07/26 21:04:53;;;;;;;0.93;0.90;;;24.20;37.80;;;20.47;47.83;95471.75;4988976;28;20028;-50
2022/07/26 21:07:18;;;;;;;2.50;1.05;;;24.10;38.50;;;20.39;47.80;95474.53;4978183;28;20200;-47
2022/07/26 21:09:44;;;;;;;2.97;1.25;;;24.00;38.60;;;20.31;48.04;95473.47;4986329;28;20057;-46
2022/07/26 21:12:13;;;;;;;2.92;1.20;;;24.00;38.20;;;20.20;48.08;95472.25;4973314;28;20025;-47
2022/07/26 21:14:50;;;;;;;2.15;1.13;;;23.90;38.40;;;20.11;48.39;95473.09;4990828;28;20041;-48
2022/07/26 21:17:16;;;;;;;1.65;1.10;;;23.80;38.60;;;20.04;48.88;95470.13;4985529;28;20072;-50
2022/07/26 21:19:48;;;;;;;1.75;1.05;;;23.70;38.60;;;19.96;48.95;95475.59;4984514;28;20049;-47
2022/07/26 21:22:13;;;;;;;1.10;0.98;;;23.60;38.90;;;19.91;48.73;95479.28;4972564;28;20037;-51